Dallas, Texas
Traffic Map
Current Weather Conditions
Dallas, Texas
Clear
Clear
31°
Feels Like: 33°
Wind Chill: 31° Ceiling: Unl
Heat Index: 33° Visibility: 10mi
Dew Point: 20° Wind: 17mph
Humidity: 51% Direction: 160° (SSE)
Pressure: 29.96in Gusts: 0mph
Raw Report DataKDAL 230453Z 16015KT 10SM CLR 31/20 A2996 RMK AO2 SLP136 T03110200
Traffic Incident Summary
Active as of:
Severity:
Category:
InformationThere was an issue retrieving the traffic information for this location. Please try a different location or try again shortly.
Advertisements
Track Severe Weather on mobile